Time;durP1;ratioP1;P1;durP2;ratioP2;P2;SDS_P1;SDS_P2;PMS_P1;PMS_P2;Temp;Humidity;BMP_temperature;BMP_pressure;BME280_temperature;BME280_humidity;BME280_pressure;Samples;Min_cycle;Max_cycle;Signal;HPM_P1;HPM_P2
2022/02/09 00:00:39;;;;;;;2.50;1.37;;;1.50;99.90;;;;;;6260801;28;20293;-74
2022/02/09 00:03:53;;;;;;;3.13;1.33;;;1.50;99.90;;;;;;6264239;28;20296;-72
2022/02/09 00:07:07;;;;;;;3.50;1.77;;;1.50;99.90;;;;;;6264940;28;20292;-73
2022/02/09 00:10:15;;;;;;;6.33;1.30;;;1.50;99.90;;;;;;6265647;28;20269;-74
2022/02/09 00:13:49;;;;;;;4.07;1.10;;;1.50;99.90;;;;;;6265676;28;20299;-74
2022/02/09 00:17:18;;;;;;;1.40;1.30;;;1.40;99.90;;;;;;6265943;28;20298;-73
2022/02/09 00:21:00;;;;;;;2.50;1.37;;;1.50;99.90;;;;;;6264185;28;20298;-74
2022/02/09 00:24:41;;;;;;;4.07;1.43;;;1.50;99.90;;;;;;6264856;28;20295;-74
2022/02/09 00:31:49;;;;;;;1.90;1.27;;;1.40;99.90;;;;;;6265276;28;20277;-74
2022/02/09 00:41:55;;;;;;;1.27;1.17;;;1.40;99.90;;;;;;6265286;28;20273;-74
2022/02/09 00:58:43;;;;;;;5.40;1.50;;;1.40;99.90;;;;;;6263664;28;20283;-74
2022/02/09 01:37:58;;;;;;;3.13;1.57;;;1.30;99.90;;;;;;6213657;28;20294;-72
2022/02/09 01:40:08;;;;;;;2.00;1.13;;;1.20;99.90;;;;;;6237616;28;20627;-72
2022/02/09 01:57:12;;;;;;;3.37;1.27;;;1.20;99.90;;;;;;6237922;28;20269;-73
2022/02/09 02:00:18;;;;;;;3.13;1.20;;;1.20;99.90;;;;;;6239485;28;20296;-73
2022/02/09 02:03:28;;;;;;;2.37;1.37;;;1.20;99.90;;;;;;6238115;28;20475;-73
2022/02/09 02:06:35;;;;;;;2.33;1.60;;;1.20;99.90;;;;;;6238542;28;20456;-72
2022/02/09 02:09:41;;;;;;;1.67;1.50;;;1.20;99.90;;;;;;6240461;28;20454;-73
2022/02/09 02:13:07;;;;;;;3.33;1.40;;;1.20;99.90;;;;;;6262241;28;20298;-73
2022/02/09 02:16:22;;;;;;;3.23;1.40;;;1.20;99.90;;;;;;6262143;28;20306;-73
2022/02/09 02:19:34;;;;;;;4.60;1.37;;;1.20;99.90;;;;;;6242061;28;20467;-73
2022/02/09 02:22:50;;;;;;;4.10;1.27;;;1.10;99.90;;;;;;6243721;28;20328;-74
2022/02/09 02:26:07;;;;;;;2.40;1.23;;;1.10;99.90;;;;;;6262422;28;20270;-73
2022/02/09 02:29:42;;;;;;;4.47;1.43;;;1.00;99.90;;;;;;6243789;28;20300;-73
2022/02/09 02:36:48;;;;;;;1.30;1.20;;;1.00;99.90;;;;;;6261011;28;20274;-73
2022/02/09 02:43:50;;;;;;;3.30;1.30;;;0.90;99.90;;;;;;6218911;28;20303;-73
2022/02/09 02:57:23;;;;;;;8.23;1.50;;;1.10;99.90;;;;;;6262236;28;20278;-74
2022/02/09 03:11:03;;;;;;;5.27;1.43;;;1.00;99.90;;;;;;6261848;28;20457;-74
2022/02/09 03:14:14;;;;;;;4.97;1.73;;;1.10;99.90;;;;;;6244213;28;20299;-73
2022/02/09 03:17:25;;;;;;;8.37;1.70;;;1.00;99.90;;;;;;6240117;28;20302;-73
2022/02/09 03:20:37;;;;;;;1.87;1.23;;;1.00;99.90;;;;;;6261470;28;20275;-73
2022/02/09 03:23:47;;;;;;;3.40;1.33;;;1.00;99.90;;;;;;6247220;28;20299;-73
2022/02/09 03:27:22;;;;;;;5.70;1.50;;;1.00;99.90;;;;;;6237283;28;20461;-73
2022/02/09 03:44:45;;;;;;;2.73;1.47;;;1.00;99.90;;;;;;6260873;28;20461;-73
2022/02/09 03:48:05;;;;;;;6.90;1.50;;;1.10;99.90;;;;;;6266642;28;20294;-73
2022/02/09 03:54:56;;;;;;;10.47;1.60;;;1.20;99.90;;;;;;6311402;27;20790;-74
2022/02/09 03:58:02;;;;;;;6.40;1.43;;;1.20;99.90;;;;;;6291407;28;20301;-74
2022/02/09 04:01:07;;;;;;;8.97;1.80;;;1.20;99.90;;;;;;6307996;28;20277;-74
2022/02/09 04:04:13;;;;;;;6.10;2.23;;;1.20;99.90;;;;;;6306435;28;20477;-74
2022/02/09 04:07:18;;;;;;;3.60;1.60;;;1.10;99.90;;;;;;6320160;28;20298;-74
2022/02/09 04:10:32;;;;;;;3.17;1.63;;;1.00;99.90;;;;;;6283709;28;20271;-74
2022/02/09 04:13:48;;;;;;;3.47;1.50;;;1.00;99.90;;;;;;6282728;28;20305;-74
2022/02/09 04:17:05;;;;;;;6.97;1.77;;;1.10;99.90;;;;;;6283441;28;20271;-74
2022/02/09 04:20:33;;;;;;;6.07;1.97;;;1.00;99.90;;;;;;6282033;28;20286;-75
2022/02/09 04:37:20;;;;;;;4.37;1.93;;;0.80;99.90;;;;;;6282262;28;20271;-74
2022/02/09 04:40:56;;;;;;;4.33;1.60;;;0.90;99.90;;;;;;6282530;28;20275;-74
2022/02/09 04:44:19;;;;;;;7.00;1.93;;;0.80;99.90;;;;;;6282488;28;20313;-74
2022/02/09 04:47:46;;;;;;;4.57;1.87;;;0.90;99.90;;;;;;6281769;28;20297;-74
2022/02/09 04:50:57;;;;;;;8.47;2.20;;;0.80;99.90;;;;;;6281971;28;20443;-74
2022/02/09 04:54:21;;;;;;;2.90;1.50;;;0.80;99.90;;;;;;6282049;28;20298;-74
2022/02/09 04:57:33;;;;;;;7.00;1.80;;;0.80;99.90;;;;;;6281583;28;20306;-74
2022/02/09 05:00:49;;;;;;;8.80;2.10;;;0.80;99.90;;;;;;6282646;28;20294;-74
2022/02/09 05:04:15;;;;;;;6.00;1.77;;;0.80;99.90;;;;;;6277182;28;20609;-73
2022/02/09 05:18:05;;;;;;;12.50;1.90;;;0.80;99.90;;;;;;6289068;28;20299;-73
2022/02/09 05:21:46;;;;;;;5.67;2.17;;;0.80;99.90;;;;;;6289385;28;20562;-72
2022/02/09 05:25:02;;;;;;;10.90;2.10;;;0.80;99.90;;;;;;6265596;28;20310;-73
2022/02/09 05:28:11;;;;;;;10.07;2.73;;;0.80;99.90;;;;;;6265212;28;20315;-73
2022/02/09 05:31:18;;;;;;;7.10;2.10;;;0.80;99.90;;;;;;6264332;28;20565;-72
2022/02/09 05:34:25;;;;;;;5.83;1.97;;;0.80;99.90;;;;;;6264991;28;20594;-73
2022/02/09 05:37:30;;;;;;;5.97;2.13;;;0.80;99.90;;;;;;6264423;28;20298;-73
2022/02/09 05:40:35;;;;;;;9.60;2.03;;;0.80;99.90;;;;;;6264992;28;20274;-73
2022/02/09 05:43:41;;;;;;;8.83;2.33;;;0.80;99.90;;;;;;6264499;28;20307;-73
2022/02/09 05:47:39;;;;;;;8.47;2.20;;;0.80;99.90;;;;;;6264139;28;20348;-73
2022/02/09 05:50:35;;;;;;;9.27;2.53;;;0.80;99.90;;;;;;6263598;28;20450;-72
2022/02/09 05:53:56;;;;;;;5.33;2.17;;;0.80;99.90;;;;;;6263671;28;20302;-73
2022/02/09 05:57:13;;;;;;;7.40;2.70;;;0.90;99.90;;;;;;6264214;28;20284;-73
2022/02/09 06:00:19;;;;;;;9.20;2.30;;;0.80;99.90;;;;;;6264623;28;20280;-73
2022/02/09 06:03:24;;;;;;;11.47;2.47;;;0.90;99.90;;;;;;6263938;28;20299;-74
2022/02/09 06:06:31;;;;;;;9.03;2.40;;;0.90;99.90;;;;;;6264240;28;20275;-74
2022/02/09 06:09:38;;;;;;;10.83;2.30;;;0.90;99.90;;;;;;6263741;28;20576;-73
2022/02/09 06:12:49;;;;;;;6.60;2.40;;;1.00;99.90;;;;;;6263776;28;20306;-74
2022/02/09 06:16:11;;;;;;;17.63;3.53;;;0.90;99.90;;;;;;6262776;28;20298;-73
2022/02/09 06:22:44;;;;;;;13.37;2.37;;;0.90;99.90;;;;;;6263985;28;20298;-72
2022/02/09 06:25:49;;;;;;;10.00;2.77;;;1.00;99.90;;;;;;6264112;28;20278;-72
2022/02/09 06:28:55;;;;;;;9.00;2.83;;;1.00;99.90;;;;;;6262587;28;20453;-74
2022/02/09 06:32:07;;;;;;;9.40;2.40;;;1.00;99.90;;;;;;6263116;28;20283;-75
2022/02/09 06:35:18;;;;;;;13.90;2.63;;;1.00;99.90;;;;;;6263355;28;20609;-74
2022/02/09 06:38:25;;;;;;;6.87;2.53;;;1.00;99.90;;;;;;6262716;28;20299;-73
2022/02/09 06:41:30;;;;;;;6.60;2.23;;;1.00;99.90;;;;;;6263432;28;20274;-73
2022/02/09 06:44:35;;;;;;;8.13;2.00;;;1.00;99.90;;;;;;6262930;28;20306;-72
2022/02/09 06:47:42;;;;;;;12.90;2.80;;;1.10;99.90;;;;;;6262305;28;20298;-73
2022/02/09 06:50:51;;;;;;;19.73;2.80;;;1.10;99.90;;;;;;6262509;28;20275;-72
2022/02/09 06:54:02;;;;;;;14.43;2.87;;;1.20;99.90;;;;;;6261872;28;20298;-72
2022/02/09 06:57:13;;;;;;;12.17;2.53;;;1.30;99.90;;;;;;6262886;28;20279;-74
2022/02/09 07:00:21;;;;;;;18.43;3.07;;;1.30;99.90;;;;;;6263651;28;20275;-73
2022/02/09 07:03:26;;;;;;;18.93;2.77;;;1.30;99.90;;;;;;6261772;28;20295;-73
2022/02/09 07:06:32;;;;;;;9.03;2.77;;;1.40;99.90;;;;;;6262892;28;20277;-73
2022/02/09 07:09:40;;;;;;;11.77;2.60;;;1.40;99.90;;;;;;6262324;28;20304;-73
2022/02/09 07:12:45;;;;;;;12.87;2.70;;;1.40;99.90;;;;;;6262213;28;20299;-73
2022/02/09 07:15:53;;;;;;;13.67;2.83;;;1.40;99.90;;;;;;6262739;28;20294;-72
2022/02/09 07:18:59;;;;;;;17.60;3.03;;;1.40;99.90;;;;;;6261795;28;20306;-73
2022/02/09 07:22:06;;;;;;;12.90;2.40;;;1.40;99.90;;;;;;6261995;28;20275;-74
2022/02/09 07:25:15;;;;;;;16.17;2.53;;;1.40;99.90;;;;;;6262859;28;20278;-73
2022/02/09 07:28:21;;;;;;;12.77;2.80;;;1.40;99.90;;;;;;6261784;28;20308;-73
2022/02/09 07:31:26;;;;;;;17.37;3.07;;;1.40;99.90;;;;;;6262609;28;20271;-73
2022/02/09 07:34:32;;;;;;;14.37;2.67;;;1.50;99.90;;;;;;6262412;28;20307;-73
2022/02/09 07:37:37;;;;;;;13.10;2.50;;;1.50;99.90;;;;;;6261622;28;20295;-73
2022/02/09 07:40:44;;;;;;;11.97;2.97;;;1.50;99.90;;;;;;6262882;28;20279;-73
2022/02/09 07:44:03;;;;;;;16.23;2.87;;;1.60;99.90;;;;;;6261445;28;20603;-73
2022/02/09 07:47:32;;;;;;;9.93;3.03;;;1.70;99.90;;;;;;6262373;28;20272;-73
2022/02/09 07:50:41;;;;;;;9.57;2.40;;;1.90;99.90;;;;;;6262720;28;20275;-74
2022/02/09 07:53:48;;;;;;;9.60;2.70;;;1.90;99.90;;;;;;6261402;28;20306;-73
2022/02/09 07:56:55;;;;;;;15.93;2.70;;;2.00;99.90;;;;;;6262491;28;20290;-73
2022/02/09 08:00:00;;;;;;;15.87;3.13;;;2.10;99.90;;;;;;6261966;28;20439;-72
2022/02/09 08:03:06;;;;;;;14.77;2.73;;;2.20;99.90;;;;;;6260617;28;20290;-73
2022/02/09 08:06:15;;;;;;;19.50;3.20;;;2.40;99.90;;;;;;6261758;28;20453;-72
2022/02/09 08:09:28;;;;;;;17.20;2.90;;;2.40;99.90;;;;;;6261542;28;20300;-73
2022/02/09 08:12:52;;;;;;;12.70;2.50;;;2.50;99.90;;;;;;6266139;28;20298;-73
2022/02/09 08:30:03;;;;;;;14.70;2.60;;;2.70;99.90;;;;;;6261633;28;20297;-73
2022/02/09 08:33:19;;;;;;;9.67;2.60;;;2.80;99.90;;;;;;6286365;28;20300;-73
2022/02/09 08:36:25;;;;;;;12.20;2.37;;;2.80;99.90;;;;;;6286175;28;20294;-73
2022/02/09 08:39:30;;;;;;;8.67;2.40;;;2.80;99.90;;;;;;6287453;28;20311;-73
2022/02/09 08:42:38;;;;;;;13.53;2.77;;;2.80;99.90;;;;;;6290109;28;20310;-73
2022/02/09 08:45:44;;;;;;;12.43;2.47;;;2.80;99.90;;;;;;6290291;28;20280;-73
2022/02/09 08:48:49;;;;;;;18.20;2.70;;;2.80;99.90;;;;;;6289712;28;20311;-73
2022/02/09 08:51:56;;;;;;;12.70;2.50;;;2.90;99.90;;;;;;6290417;28;20273;-73
2022/02/09 08:55:01;;;;;;;10.57;2.40;;;3.00;99.90;;;;;;6290289;28;20280;-73
2022/02/09 08:58:07;;;;;;;9.70;2.10;;;3.00;99.90;;;;;;6289900;28;20477;-74
2022/02/09 09:01:24;;;;;;;9.63;2.73;;;3.20;99.90;;;;;;6290651;28;20439;-74
2022/02/09 09:04:30;;;;;;;19.10;3.07;;;3.20;99.90;;;;;;6280259;28;20293;-74
2022/02/09 09:07:37;;;;;;;12.30;2.70;;;3.30;99.90;;;;;;6285782;28;20294;-74
2022/02/09 09:10:58;;;;;;;13.23;2.63;;;3.40;99.90;;;;;;6289441;28;20553;-73
2022/02/09 10:02:53;;;;;;;9.47;2.53;;;4.10;99.90;;;;;;6261065;28;20274;-73
2022/02/09 10:33:30;;;;;;;10.73;2.60;;;4.20;99.90;;;;;;6287755;28;20307;-74
2022/02/09 10:36:49;;;;;;;8.07;2.43;;;4.20;99.90;;;;;;6288684;28;20274;-74
2022/02/09 10:40:01;;;;;;;7.07;2.00;;;4.30;99.90;;;;;;6287549;28;20474;-74
2022/02/09 10:43:23;;;;;;;8.80;2.00;;;4.40;99.90;;;;;;6287717;28;20311;-74
2022/02/09 10:46:29;;;;;;;9.60;2.00;;;4.50;99.90;;;;;;6287586;28;20270;-74
2022/02/09 10:49:34;;;;;;;11.60;2.17;;;4.70;99.90;;;;;;6287925;28;20318;-74
2022/02/09 10:52:42;;;;;;;7.87;2.43;;;4.80;99.90;;;;;;6287879;28;20318;-74
2022/02/09 10:55:47;;;;;;;12.83;2.57;;;4.90;99.90;;;;;;6287877;28;20274;-75
2022/02/09 10:58:55;;;;;;;14.33;2.47;;;4.90;99.90;;;;;;6287172;28;20490;-74
2022/02/09 11:02:02;;;;;;;6.90;2.33;;;4.80;99.90;;;;;;6285949;28;20273;-74
2022/02/09 11:05:09;;;;;;;11.20;2.40;;;4.80;99.90;;;;;;6286632;28;20270;-73
2022/02/09 11:08:19;;;;;;;10.47;2.27;;;4.80;99.90;;;;;;6287019;28;20296;-73
2022/02/09 11:11:25;;;;;;;9.13;2.57;;;4.90;99.90;;;;;;6286851;28;20565;-74
2022/02/09 11:14:32;;;;;;;8.37;2.10;;;5.00;99.90;;;;;;6286809;28;20578;-74
2022/02/09 11:17:39;;;;;;;5.50;2.10;;;5.10;99.90;;;;;;6286711;28;20318;-71
2022/02/09 11:21:10;;;;;;;7.47;1.90;;;5.10;99.90;;;;;;6286431;28;20273;-74
2022/02/09 11:24:20;;;;;;;7.33;2.57;;;5.10;99.90;;;;;;6287068;28;20603;-73
2022/02/09 11:27:32;;;;;;;8.03;2.10;;;5.10;99.90;;;;;;6287369;28;20298;-74
2022/02/09 11:30:45;;;;;;;6.97;1.80;;;5.20;99.90;;;;;;6286524;28;20276;-74
2022/02/09 11:34:05;;;;;;;5.87;2.00;;;5.20;99.90;;;;;;6286313;28;20294;-74
2022/02/09 11:37:13;;;;;;;10.03;2.03;;;5.20;99.90;;;;;;6286363;28;20552;-74
2022/02/09 11:40:31;;;;;;;7.90;2.10;;;5.30;99.90;;;;;;6286313;28;20268;-74
2022/02/09 11:43:51;;;;;;;10.17;1.80;;;5.30;99.90;;;;;;6286117;28;20298;-74
2022/02/09 11:47:17;;;;;;;8.53;1.90;;;5.30;99.90;;;;;;6285118;28;20270;-73
2022/02/09 11:50:53;;;;;;;9.67;2.97;;;5.40;99.90;;;;;;6285889;28;20284;-73
2022/02/09 12:11:59;;;;;;;8.80;1.90;;;5.70;99.90;;;;;;6335938;28;20519;-73
2022/02/09 12:15:13;;;;;;;6.00;1.77;;;5.80;99.90;;;;;;6338435;28;20274;-72
2022/02/09 12:18:28;;;;;;;7.13;2.13;;;5.90;99.90;;;;;;6341376;28;20606;-72
2022/02/09 12:21:52;;;;;;;7.93;1.63;;;6.00;99.90;;;;;;6341698;28;20273;-73
2022/02/09 12:24:59;;;;;;;5.03;1.70;;;6.00;99.90;;;;;;6340675;28;20440;-72
2022/02/09 12:28:04;;;;;;;3.20;1.60;;;6.10;99.90;;;;;;6340437;28;20309;-73
2022/02/09 12:31:13;;;;;;;7.27;1.80;;;6.10;99.90;;;;;;6340723;28;20374;-73
2022/02/09 12:34:23;;;;;;;7.43;1.63;;;6.20;99.90;;;;;;6340656;28;20296;-73
2022/02/09 12:37:32;;;;;;;7.47;2.10;;;6.20;99.90;;;;;;6340997;28;20295;-73
2022/02/09 12:40:38;;;;;;;2.67;1.47;;;6.20;99.90;;;;;;6341838;28;20293;-73
2022/02/09 12:43:50;;;;;;;11.53;1.90;;;6.00;99.90;;;;;;6340651;28;20295;-73
2022/02/09 12:46:56;;;;;;;8.77;2.00;;;6.10;99.90;;;;;;6341362;28;20270;-73
2022/02/09 12:50:06;;;;;;;9.70;1.93;;;6.00;99.90;;;;;;6340812;28;20280;-73
2022/02/09 12:53:22;;;;;;;9.63;1.70;;;6.00;99.90;;;;;;6340072;28;20298;-73
2022/02/09 12:56:30;;;;;;;2.83;1.50;;;5.90;99.90;;;;;;6340586;28;20293;-73
2022/02/09 12:59:36;;;;;;;3.97;1.70;;;6.00;99.90;;;;;;6340341;28;20313;-74
2022/02/09 13:02:43;;;;;;;4.80;1.70;;;6.10;99.90;;;;;;6339865;28;20292;-73
2022/02/09 13:05:51;;;;;;;7.07;1.67;;;6.30;99.90;;;;;;6355532;28;20277;-73
2022/02/09 13:08:58;;;;;;;7.30;1.93;;;6.40;99.90;;;;;;6340114;28;20300;-74
2022/02/09 13:12:05;;;;;;;4.37;1.70;;;6.40;99.90;;;;;;6339520;28;20275;-74
2022/02/09 13:15:18;;;;;;;3.23;1.63;;;6.50;99.90;;;;;;6340596;28;20264;-74
2022/02/09 13:18:42;;;;;;;9.57;1.80;;;6.50;99.90;;;;;;6339946;28;20292;-73
2022/02/09 13:25:42;;;;;;;5.00;1.90;;;6.30;99.90;;;;;;6338709;28;20577;-73
2022/02/09 13:53:55;;;;;;;5.80;1.60;;;6.00;99.90;;;;;;6338273;28;20296;-73
2022/02/09 14:14:02;;;;;;;6.53;1.60;;;6.20;99.90;;;;;;6295323;28;20459;-73
2022/02/09 14:17:33;;;;;;;3.97;1.70;;;6.20;99.90;;;;;;6338193;28;20275;-73
2022/02/09 14:48:17;;;;;;;4.77;1.67;;;5.90;99.90;;;;;;6335660;28;20305;-73
2022/02/09 14:51:55;;;;;;;6.77;1.90;;;5.80;99.90;;;;;;6337268;28;20294;-73
2022/02/09 14:55:10;;;;;;;7.93;1.70;;;5.80;99.90;;;;;;6337166;28;20304;-73
2022/02/09 14:58:23;;;;;;;7.03;1.70;;;5.70;99.90;;;;;;6337311;28;20297;-73
2022/02/09 15:01:36;;;;;;;3.93;1.60;;;5.60;99.90;;;;;;6337267;28;20611;-73
2022/02/09 15:08:34;;;;;;;4.67;1.80;;;5.60;99.90;;;;;;6308644;27;20797;-73
2022/02/09 15:11:53;;;;;;;4.23;1.63;;;5.60;99.90;;;;;;6259641;28;20306;-72
2022/02/09 15:15:23;;;;;;;7.40;1.50;;;5.50;99.90;;;;;;6283807;28;20301;-72
2022/02/09 15:22:03;;;;;;;5.13;1.97;;;5.50;99.90;;;;;;6283243;28;20274;-73
2022/02/09 15:25:16;;;;;;;5.00;1.93;;;5.40;99.90;;;;;;6283204;28;20277;-72
2022/02/09 15:28:22;;;;;;;8.73;2.33;;;5.30;99.90;;;;;;6282539;28;20304;-73
2022/02/09 15:31:35;;;;;;;6.23;1.97;;;5.20;99.90;;;;;;6283578;28;20273;-72
2022/02/09 15:34:45;;;;;;;7.23;2.00;;;5.20;99.90;;;;;;6282468;28;20292;-73
2022/02/09 15:37:58;;;;;;;7.33;2.07;;;5.10;99.90;;;;;;6283246;28;20307;-73
2022/02/09 15:41:15;;;;;;;6.07;1.80;;;5.10;99.90;;;;;;6282897;28;20272;-73
2022/02/09 16:16:39;;;;;;;6.43;1.90;;;5.00;99.90;;;;;;6268951;28;20280;-73
2022/02/09 16:21:58;;;;;;;7.23;1.97;;;4.80;99.90;;;;;;6240900;28;20272;-72
2022/02/09 16:25:20;;;;;;;9.07;2.00;;;4.80;99.90;;;;;;6240510;28;20277;-72
2022/02/09 16:45:16;;;;;;;8.43;2.30;;;4.70;99.90;;;;;;6233450;28;20290;-73
2022/02/09 16:48:24;;;;;;;5.47;1.80;;;4.80;99.90;;;;;;6264409;28;20301;-73
2022/02/09 16:51:33;;;;;;;8.07;1.73;;;4.80;99.90;;;;;;6264481;28;20274;-74
2022/02/09 16:54:47;;;;;;;4.33;1.37;;;4.70;99.90;;;;;;6265020;28;20302;-73
2022/02/09 17:21:43;;;;;;;2.47;1.50;;;4.80;99.90;;;;;;6264003;28;20547;-73
2022/02/09 17:24:48;;;;;;;2.30;1.40;;;4.80;99.90;;;;;;6240247;28;20304;-73
2022/02/09 17:27:53;;;;;;;5.50;1.37;;;4.80;99.90;;;;;;6246948;28;20313;-73
2022/02/09 17:31:06;;;;;;;4.70;1.73;;;4.70;99.90;;;;;;6263232;28;20279;-73
2022/02/09 17:38:02;;;;;;;3.37;1.27;;;4.70;99.90;;;;;;6244758;28;20307;-72
2022/02/09 17:58:18;;;;;;;5.37;1.60;;;4.50;99.90;;;;;;6243811;28;20305;-73
2022/02/09 18:01:24;;;;;;;3.37;1.40;;;4.40;99.90;;;;;;6237992;28;20271;-73
2022/02/09 18:04:30;;;;;;;3.97;1.23;;;4.40;99.90;;;;;;6259006;28;20295;-74
2022/02/09 18:07:37;;;;;;;4.73;1.00;;;4.50;99.90;;;;;;6256964;28;20316;-74
2022/02/09 18:10:52;;;;;;;5.53;1.20;;;4.50;99.90;;;;;;6238637;28;20271;-73
2022/02/09 18:14:26;;;;;;;2.63;1.10;;;4.50;99.90;;;;;;6254800;28;20297;-73
2022/02/09 18:28:03;;;;;;;1.93;1.00;;;4.30;99.90;;;;;;6237026;28;20313;-73
2022/02/09 18:31:12;;;;;;;1.47;0.90;;;4.20;99.90;;;;;;6238234;28;20274;-72
2022/02/09 18:34:46;;;;;;;2.40;1.23;;;4.20;99.90;;;;;;6237918;28;20302;-73
2022/02/09 18:38:16;;;;;;;2.40;1.00;;;4.20;99.80;;;;;;6236814;28;20301;-72
2022/02/09 18:44:50;;;;;;;3.13;1.00;;;4.10;99.70;;;;;;6237774;28;20297;-73
2022/02/09 18:48:15;;;;;;;1.57;1.00;;;4.10;99.90;;;;;;6237259;28;20330;-72
2022/02/09 19:02:01;;;;;;;0.97;0.90;;;4.10;99.20;;;;;;6166260;28;20577;-74
2022/02/09 19:08:50;;;;;;;3.17;1.03;;;4.10;98.80;;;;;;6234981;28;20601;-75
2022/02/09 19:15:47;;;;;;;1.73;0.80;;;4.10;98.20;;;;;;6236831;28;20273;-75
2022/02/09 19:19:08;;;;;;;1.93;0.90;;;4.00;98.60;;;;;;6235949;28;20297;-75
2022/02/09 19:32:31;;;;;;;2.20;0.87;;;3.90;98.30;;;;;;6236135;28;20457;-73
2022/02/09 19:46:08;;;;;;;2.77;1.20;;;3.90;97.80;;;;;;6237043;28;20272;-73
2022/02/09 19:49:20;;;;;;;3.03;1.00;;;3.90;98.50;;;;;;6237036;28;20306;-73
2022/02/09 19:52:45;;;;;;;4.23;1.10;;;3.90;97.80;;;;;;6236759;28;20299;-73
2022/02/09 19:55:55;;;;;;;1.80;1.00;;;3.90;97.70;;;;;;6242007;28;20275;-73
2022/02/09 19:59:04;;;;;;;1.97;1.30;;;3.80;98.30;;;;;;6241147;28;20303;-74
2022/02/09 20:02:13;;;;;;;1.03;1.03;;;3.70;98.40;;;;;;6240587;28;20278;-73
2022/02/09 20:05:21;;;;;;;1.83;1.20;;;3.80;98.10;;;;;;6241114;28;20272;-74
2022/02/09 20:08:27;;;;;;;1.87;1.10;;;3.80;98.20;;;;;;6241154;28;20303;-73
2022/02/09 20:11:34;;;;;;;3.93;1.07;;;3.80;98.40;;;;;;6241285;28;20267;-73
2022/02/09 20:14:40;;;;;;;3.63;0.77;;;3.80;98.30;;;;;;6240888;28;20307;-72
2022/02/09 20:17:47;;;;;;;3.50;0.80;;;3.70;98.60;;;;;;6240877;28;20299;-74
2022/02/09 20:20:54;;;;;;;2.93;1.30;;;3.70;98.70;;;;;;6241310;28;20275;-73
2022/02/09 20:24:02;;;;;;;4.23;0.80;;;3.70;98.50;;;;;;6241271;28;20307;-72
2022/02/09 20:27:13;;;;;;;2.63;1.20;;;3.70;98.40;;;;;;6240060;28;20276;-73
2022/02/09 20:30:23;;;;;;;3.43;1.17;;;3.70;98.30;;;;;;6241171;28;20296;-73
2022/02/09 20:33:34;;;;;;;1.67;1.13;;;3.60;98.60;;;;;;6240601;28;20300;-73
2022/02/09 20:36:41;;;;;;;1.30;0.90;;;3.60;98.90;;;;;;6241222;28;20278;-72
2022/02/09 20:39:58;;;;;;;1.80;1.10;;;3.50;98.90;;;;;;6239674;28;20302;-72
2022/02/09 20:43:05;;;;;;;1.57;1.00;;;3.50;98.80;;;;;;6240736;28;20303;-74
2022/02/09 20:46:12;;;;;;;3.33;1.00;;;3.50;98.90;;;;;;6240043;28;20413;-74
2022/02/09 20:49:18;;;;;;;2.97;1.10;;;3.50;98.70;;;;;;6240448;28;20311;-75
2022/02/09 20:52:23;;;;;;;3.50;1.00;;;3.50;98.70;;;;;;6240689;28;20295;-74
2022/02/09 20:55:30;;;;;;;1.53;1.20;;;3.50;98.90;;;;;;6240979;28;20279;-73
2022/02/09 20:58:38;;;;;;;5.77;1.43;;;3.40;98.90;;;;;;6240430;28;20298;-74
2022/02/09 21:01:51;;;;;;;2.33;1.27;;;3.40;99.10;;;;;;6240528;28;20284;-74
2022/02/09 21:05:08;;;;;;;1.00;1.00;;;3.40;99.00;;;;;;6238872;28;20297;-73
2022/02/09 21:08:30;;;;;;;2.80;1.13;;;3.30;99.10;;;;;;6237939;28;20302;-74
2022/02/09 21:11:56;;;;;;;3.27;1.37;;;3.40;98.60;;;;;;6238013;28;20300;-73
2022/02/09 21:15:18;;;;;;;1.70;0.97;;;3.40;98.90;;;;;;6238550;28;20456;-73
2022/02/09 21:25:33;;;;;;;3.00;1.00;;;3.40;98.60;;;;;;6238484;28;20658;-73
2022/02/09 21:46:00;;;;;;;0.80;0.80;;;3.20;98.30;;;;;;6239479;28;20290;-72
2022/02/09 21:49:25;;;;;;;1.37;0.80;;;3.10;98.70;;;;;;6238190;28;20482;-73
2022/02/09 21:52:55;;;;;;;1.40;0.80;;;3.10;98.80;;;;;;6238900;28;20322;-72
2022/02/09 21:56:13;;;;;;;1.53;1.00;;;3.10;98.50;;;;;;6239211;28;20547;-72
2022/02/09 21:59:41;;;;;;;2.57;0.80;;;3.10;98.40;;;;;;6238622;28;20298;-73
2022/02/09 22:06:31;;;;;;;2.63;1.10;;;3.10;98.60;;;;;;6238287;28;20493;-73
2022/02/09 22:16:44;;;;;;;6.37;1.00;;;3.10;98.90;;;;;;6237506;28;20275;-73
2022/02/09 22:27:10;;;;;;;5.03;0.97;;;3.10;98.80;;;;;;6162849;29;20277;-73
2022/02/09 22:50:43;;;;;;;1.73;1.00;;;3.00;99.00;;;;;;6236999;28;20292;-73
2022/02/09 22:57:14;;;;;;;1.43;1.10;;;2.90;99.60;;;;;;6236861;28;20275;-73
2022/02/09 23:00:48;;;;;;;2.20;1.23;;;2.90;99.80;;;;;;6238098;28;20273;-73
2022/02/09 23:04:15;;;;;;;3.20;1.20;;;2.80;99.70;;;;;;6236815;28;20458;-72
2022/02/09 23:07:25;;;;;;;1.53;1.17;;;2.90;99.80;;;;;;6236489;28;20303;-73
2022/02/09 23:10:56;;;;;;;4.47;1.50;;;2.80;99.90;;;;;;6237608;28;20279;-73
2022/02/09 23:14:18;;;;;;;5.47;1.33;;;2.90;99.70;;;;;;6236988;28;20325;-73
2022/02/09 23:25:11;;;;;;;3.80;1.33;;;2.80;99.90;;;;;;6182352;28;20300;-74
2022/02/09 23:55:55;;;;;;;1.50;1.40;;;2.60;99.90;;;;;;6240452;28;20277;-72
